Time;durP1;ratioP1;P1;durP2;ratioP2;P2;SDS_P1;SDS_P2;PMS_P1;PMS_P2;Temp;Humidity;BMP_temperature;BMP_pressure;BME280_temperature;BME280_humidity;BME280_pressure;Samples;Min_cycle;Max_cycle;Signal;HPM_P1;HPM_P2
2021/06/03 00:00:45;;;;;;;;;;;20.80;66.50;;;;;;5051993;28;20264;-80
2021/06/03 00:03:11;;;;;;;;;;;20.80;66.60;;;;;;5053440;28;19940;-80
2021/06/03 00:05:44;;;;;;;;;;;20.80;67.00;;;;;;5051991;28;19951;-80
2021/06/03 00:08:10;;;;;;;;;;;20.70;67.30;;;;;;5053358;28;19904;-80
2021/06/03 00:10:38;;;;;;;;;;;20.60;67.00;;;;;;5052986;28;19915;-80
2021/06/03 00:13:06;;;;;;;;;;;20.70;66.70;;;;;;5052764;28;19905;-80
2021/06/03 00:15:33;;;;;;;;;;;20.70;66.50;;;;;;5051901;28;20257;-80
2021/06/03 00:17:58;;;;;;;;;;;20.70;66.30;;;;;;5033207;28;19992;-80
2021/06/03 00:20:27;;;;;;;;;;;20.70;66.70;;;;;;5031953;28;19992;-80
2021/06/03 00:22:53;;;;;;;;;;;20.60;69.00;;;;;;5032519;28;19996;-80
2021/06/03 00:25:18;;;;;;;;;;;20.40;69.20;;;;;;5031183;28;19916;-79
2021/06/03 00:27:44;;;;;;;;;;;20.30;69.80;;;;;;5032182;28;19905;-80
2021/06/03 00:30:09;;;;;;;;;;;20.20;70.50;;;;;;5032202;28;20062;-80
2021/06/03 00:32:35;;;;;;;;;;;20.20;70.80;;;;;;5032422;28;19916;-80
2021/06/03 00:35:01;;;;;;;;;;;20.10;71.30;;;;;;5034777;28;20000;-80
2021/06/03 00:37:26;;;;;;;;;;;20.00;72.00;;;;;;5034742;28;20383;-80
2021/06/03 00:39:52;;;;;;;;;;;20.00;72.70;;;;;;5034825;28;20357;-80
2021/06/03 00:42:17;;;;;;;;;;;19.90;73.00;;;;;;5035847;28;19928;-80
2021/06/03 00:44:43;;;;;;;;;;;19.80;73.60;;;;;;5034525;28;19959;-80
2021/06/03 00:47:09;;;;;;;;;;;19.80;74.50;;;;;;5034521;28;20004;-80
2021/06/03 00:49:35;;;;;;;;;;;19.70;75.00;;;;;;5034488;28;20396;-80
2021/06/03 00:52:00;;;;;;;;;;;19.70;75.60;;;;;;5036686;28;20266;-80
2021/06/03 00:54:26;;;;;;;;;;;19.70;75.90;;;;;;5035326;28;20365;-80
2021/06/03 00:56:51;;;;;;;;;;;19.70;76.10;;;;;;5035101;28;19948;-80
2021/06/03 00:59:16;;;;;;;;;;;19.70;76.40;;;;;;5036630;28;19942;-80
2021/06/03 01:01:42;;;;;;;;;;;19.70;77.20;;;;;;5036476;28;19912;-79
2021/06/03 01:04:08;;;;;;;;;;;19.60;77.30;;;;;;5036376;28;19905;-80
2021/06/03 01:06:33;;;;;;;;;;;19.60;78.00;;;;;;5036170;28;20284;-80
2021/06/03 01:09:19;;;;;;;;;;;19.50;78.40;;;;;;5036535;28;19905;-80
2021/06/03 01:12:11;;;;;;;;;;;19.50;78.70;;;;;;5034761;28;20000;-80
2021/06/03 01:14:39;;;;;;;;;;;19.50;79.30;;;;;;5034450;28;20258;-80
2021/06/03 01:17:05;;;;;;;;;;;19.50;79.60;;;;;;5048810;28;20416;-80
2021/06/03 01:19:35;;;;;;;;;;;19.40;79.90;;;;;;5054858;28;20000;-80
2021/06/03 01:22:07;;;;;;;;;;;19.40;80.30;;;;;;5054733;28;19915;-80
2021/06/03 01:24:34;;;;;;;;;;;19.40;80.60;;;;;;5054704;28;19912;-80
2021/06/03 01:27:01;;;;;;;;;;;19.30;80.80;;;;;;5055834;28;19931;-80
2021/06/03 01:29:29;;;;;;;;;;;19.30;81.00;;;;;;5054516;28;19905;-79
2021/06/03 01:31:55;;;;;;;;;;;19.30;81.30;;;;;;5055774;28;20283;-79
2021/06/03 01:34:22;;;;;;;;;;;19.30;81.40;;;;;;5054326;28;19909;-79
2021/06/03 01:36:48;;;;;;;;;;;19.20;81.80;;;;;;5055785;28;19905;-80
2021/06/03 01:39:13;;;;;;;;;;;19.20;82.20;;;;;;5055678;28;20288;-79
2021/06/03 01:41:39;;;;;;;;;;;19.20;82.50;;;;;;5054419;28;19905;-79
2021/06/03 01:44:05;;;;;;;;;;;19.20;82.80;;;;;;5054020;28;20348;-80
2021/06/03 01:46:30;;;;;;;;;;;19.20;82.60;;;;;;5054097;28;19916;-80
2021/06/03 01:48:56;;;;;;;;;;;19.20;82.90;;;;;;5054305;28;19908;-79
2021/06/03 01:51:22;;;;;;;;;;;19.20;83.40;;;;;;5054215;28;19911;-80
2021/06/03 01:53:48;;;;;;;;;;;19.10;83.60;;;;;;5054228;28;19959;-79
2021/06/03 01:56:14;;;;;;;;;;;19.10;84.10;;;;;;5055364;28;19905;-79
2021/06/03 01:58:40;;;;;;;;;;;19.10;84.80;;;;;;5055230;28;19905;-80
2021/06/03 02:01:06;;;;;;;;;;;19.10;85.00;;;;;;5055262;28;19915;-79
2021/06/03 02:03:31;;;;;;;;;;;19.10;85.20;;;;;;5053952;28;20315;-80
2021/06/03 02:05:57;;;;;;;;;;;19.10;85.10;;;;;;5055113;28;19952;-79
2021/06/03 02:08:22;;;;;;;;;;;19.00;85.40;;;;;;5054003;28;19905;-80
2021/06/03 02:10:49;;;;;;;;;;;19.10;85.70;;;;;;5055177;28;19905;-80
2021/06/03 02:13:16;;;;;;;;;;;19.10;85.90;;;;;;5053860;28;19997;-80
2021/06/03 02:15:46;;;;;;;;;;;19.10;85.90;;;;;;5053495;28;19911;-80
2021/06/03 02:18:13;;;;;;;;;;;19.10;86.00;;;;;;5054896;28;19911;-79
2021/06/03 02:20:41;;;;;;;;;;;19.10;85.70;;;;;;5053649;28;20268;-79
2021/06/03 02:23:07;;;;;;;;;;;19.20;85.40;;;;;;5053571;28;19911;-79
2021/06/03 02:25:33;;;;;;;;;;;19.20;85.10;;;;;;5054713;28;20007;-79
2021/06/03 02:27:59;;;;;;;;;;;19.20;85.40;;;;;;5053475;28;19940;-80
2021/06/03 02:30:25;;;;;;;;;;;19.20;85.50;;;;;;5053683;28;19905;-80
2021/06/03 02:32:51;;;;;;;;;;;19.30;85.60;;;;;;5053349;28;19959;-79
2021/06/03 02:35:17;;;;;;;;;;;19.30;85.20;;;;;;5053231;28;19913;-79
2021/06/03 02:37:43;;;;;;;;;;;19.30;85.00;;;;;;5053405;28;19905;-80
2021/06/03 02:40:12;;;;;;;;;;;19.30;85.00;;;;;;5054576;28;19904;-80
2021/06/03 02:42:38;;;;;;;;;;;19.30;85.20;;;;;;5054469;28;19905;-79
2021/06/03 02:45:05;;;;;;;;;;;19.30;85.50;;;;;;5053013;28;19950;-80
2021/06/03 02:47:31;;;;;;;;;;;19.30;85.40;;;;;;5054347;28;20036;-79
2021/06/03 02:49:56;;;;;;;;;;;19.20;85.90;;;;;;5054292;28;19939;-80
2021/06/03 02:52:22;;;;;;;;;;;19.10;87.10;;;;;;5052926;28;20379;-79
2021/06/03 02:54:47;;;;;;;;;;;18.90;87.90;;;;;;5053017;28;20269;-80
2021/06/03 02:57:13;;;;;;;;;;;18.90;88.30;;;;;;5052203;28;19951;-79
2021/06/03 02:59:38;;;;;;;;;;;18.80;89.20;;;;;;5052819;28;19930;-79
2021/06/03 03:02:04;;;;;;;;;;;18.80;89.80;;;;;;5052759;28;20353;-79
2021/06/03 03:04:29;;;;;;;;;;;18.70;90.50;;;;;;5054207;28;20283;-80
2021/06/03 03:06:54;;;;;;;;;;;18.60;90.90;;;;;;5054021;28;19916;-80
2021/06/03 03:09:20;;;;;;;;;;;18.60;91.20;;;;;;5052833;28;19915;-79
2021/06/03 03:11:45;;;;;;;;;;;18.60;91.20;;;;;;5052691;28;19911;-79
2021/06/03 03:14:11;;;;;;;;;;;18.60;91.20;;;;;;5052673;28;19999;-79
2021/06/03 03:16:36;;;;;;;;;;;18.60;91.40;;;;;;5052421;28;19947;-79
2021/06/03 03:19:02;;;;;;;;;;;18.60;91.30;;;;;;5052652;28;19912;-79
2021/06/03 03:21:27;;;;;;;;;;;18.60;91.30;;;;;;5053847;28;19994;-80
2021/06/03 03:23:53;;;;;;;;;;;18.60;91.40;;;;;;5052535;28;19931;-79
2021/06/03 03:26:18;;;;;;;;;;;18.60;91.50;;;;;;5052345;28;20275;-79
2021/06/03 03:28:44;;;;;;;;;;;18.60;91.30;;;;;;5053751;28;19959;-79
2021/06/03 03:31:09;;;;;;;;;;;18.60;91.40;;;;;;5052240;28;19905;-79
2021/06/03 03:33:35;;;;;;;;;;;18.60;91.30;;;;;;5052464;28;19931;-79
2021/06/03 03:36:00;;;;;;;;;;;18.60;91.10;;;;;;5052163;28;19924;-79
2021/06/03 03:38:26;;;;;;;;;;;18.60;91.10;;;;;;5052439;28;19958;-79
2021/06/03 03:40:51;;;;;;;;;;;18.70;91.30;;;;;;5052425;28;19944;-79
2021/06/03 03:43:17;;;;;;;;;;;18.70;91.30;;;;;;5052303;28;20349;-79
2021/06/03 03:45:43;;;;;;;;;;;18.70;91.10;;;;;;5053208;28;19913;-80
2021/06/03 03:48:08;;;;;;;;;;;18.60;91.00;;;;;;5052264;28;19905;-80
2021/06/03 03:50:34;;;;;;;;;;;18.50;91.60;;;;;;5052265;28;19927;-79
2021/06/03 03:53:00;;;;;;;;;;;18.40;92.00;;;;;;5053419;28;20003;-80
2021/06/03 03:55:26;;;;;;;;;;;18.20;92.80;;;;;;5052171;28;19952;-79
2021/06/03 03:57:51;;;;;;;;;;;18.20;93.40;;;;;;5053590;28;19958;-79
2021/06/03 04:00:17;;;;;;;;;;;18.10;93.80;;;;;;5052105;28;19905;-79
2021/06/03 04:02:43;;;;;;;;;;;18.10;94.10;;;;;;5051641;28;19978;-79
2021/06/03 04:05:08;;;;;;;;;;;18.20;94.20;;;;;;5051433;28;19912;-79
2021/06/03 04:07:37;;;;;;;;;;;18.20;94.20;;;;;;5052424;28;19905;-79
2021/06/03 04:10:04;;;;;;;;;;;18.20;94.50;;;;;;5057453;28;20360;-79
2021/06/03 04:12:29;;;;;;;;;;;18.20;94.40;;;;;;5056820;28;19904;-80
2021/06/03 04:14:55;;;;;;;;;;;18.30;94.40;;;;;;5056387;28;20404;-80
2021/06/03 04:17:20;;;;;;;;;;;18.40;94.20;;;;;;5056115;28;19963;-79
2021/06/03 04:19:46;;;;;;;;;;;18.50;94.00;;;;;;5056379;28;19904;-80
2021/06/03 04:22:11;;;;;;;;;;;18.50;93.90;;;;;;5055018;28;19928;-79
2021/06/03 04:24:36;;;;;;;;;;;18.60;93.70;;;;;;5056245;28;19909;-80
2021/06/03 04:27:02;;;;;;;;;;;18.70;93.60;;;;;;5056154;28;20016;-79
2021/06/03 04:29:27;;;;;;;;;;;18.70;93.40;;;;;;5054877;28;19992;-79
2021/06/03 04:31:53;;;;;;;;;;;18.80;93.30;;;;;;5054779;28;20011;-79
2021/06/03 04:34:18;;;;;;;;;;;18.80;93.20;;;;;;5055796;28;20310;-79
2021/06/03 04:36:44;;;;;;;;;;;18.80;93.30;;;;;;5054727;28;19904;-80
2021/06/03 04:39:09;;;;;;;;;;;18.80;93.40;;;;;;5056013;28;19911;-80
2021/06/03 04:41:34;;;;;;;;;;;18.80;93.60;;;;;;5055877;28;19904;-79
2021/06/03 04:44:00;;;;;;;;;;;18.80;93.80;;;;;;5056699;28;19908;-80
2021/06/03 04:46:26;;;;;;;;;;;18.70;93.90;;;;;;5056583;28;19952;-80
2021/06/03 04:48:51;;;;;;;;;;;18.70;94.10;;;;;;5056438;28;19962;-80
2021/06/03 04:51:16;;;;;;;;;;;18.80;94.00;;;;;;5055780;28;19913;-79
2021/06/03 04:53:42;;;;;;;;;;;18.70;94.10;;;;;;5054260;28;19958;-80
2021/06/03 04:56:07;;;;;;;;;;;18.70;94.30;;;;;;5056108;28;19954;-80
2021/06/03 04:58:33;;;;;;;;;;;18.70;94.40;;;;;;5056055;28;19911;-80
2021/06/03 05:00:58;;;;;;;;;;;18.70;94.30;;;;;;5054790;28;19952;-79
2021/06/03 05:03:24;;;;;;;;;;;18.70;94.20;;;;;;5053648;28;19908;-80
2021/06/03 05:05:49;;;;;;;;;;;18.70;94.20;;;;;;5053641;28;19916;-80
2021/06/03 05:08:15;;;;;;;;;;;18.70;94.20;;;;;;5053753;28;20004;-80
2021/06/03 05:10:40;;;;;;;;;;;18.70;94.20;;;;;;5055034;28;20732;-80
2021/06/03 05:13:06;;;;;;;;;;;18.70;94.20;;;;;;5052333;28;19911;-80
2021/06/03 05:15:32;;;;;;;;;;;18.70;94.60;;;;;;5054359;28;20007;-79
2021/06/03 05:17:58;;;;;;;;;;;18.70;95.00;;;;;;5055552;28;20280;-80
2021/06/03 05:20:24;;;;;;;;;;;18.60;95.40;;;;;;5054782;28;19905;-80
2021/06/03 05:22:50;;;;;;;;;;;18.50;95.80;;;;;;5055713;28;19963;-80
2021/06/03 05:25:17;;;;;;;;;;;18.50;96.20;;;;;;5054154;28;19904;-80
2021/06/03 05:27:43;;;;;;;;;;;18.50;96.50;;;;;;5055269;28;20352;-79
2021/06/03 05:30:10;;;;;;;;;;;18.50;96.90;;;;;;5054297;28;19911;-79
2021/06/03 05:32:35;;;;;;;;;;;18.40;97.20;;;;;;5054142;28;19992;-80
2021/06/03 05:35:01;;;;;;;;;;;18.30;98.10;;;;;;5055051;28;20011;-79
2021/06/03 05:37:26;;;;;;;;;;;18.30;98.20;;;;;;5042197;28;20299;-80
2021/06/03 05:39:52;;;;;;;;;;;18.40;98.70;;;;;;5037121;28;19932;-79
2021/06/03 05:42:18;;;;;;;;;;;18.50;99.40;;;;;;5036710;28;19905;-80
2021/06/03 05:44:43;;;;;;;;;;;18.60;99.80;;;;;;5033075;28;19909;-79
2021/06/03 05:47:09;;;;;;;;;;;18.80;99.70;;;;;;5040686;28;19935;-80
2021/06/03 05:49:34;;;;;;;;;;;19.00;99.60;;;;;;5036640;28;19905;-80
2021/06/03 05:52:02;;;;;;;;;;;19.10;99.40;;;;;;5035686;28;19951;-80
2021/06/03 05:54:27;;;;;;;;;;;19.20;99.30;;;;;;5035434;28;19928;-80
2021/06/03 05:56:53;;;;;;;;;;;19.30;98.90;;;;;;5037931;28;19905;-80
2021/06/03 05:59:18;;;;;;;;;;;19.40;98.60;;;;;;5034386;28;19912;-80
2021/06/03 06:01:43;;;;;;;;;;;19.50;98.60;;;;;;5035732;28;19928;-80
2021/06/03 06:04:18;;;;;;;;;;;19.50;98.40;;;;;;5037158;28;19905;-79
2021/06/03 06:06:44;;;;;;;;;;;19.50;98.30;;;;;;5038693;28;19916;-80
2021/06/03 06:09:14;;;;;;;;;;;19.50;98.70;;;;;;5049487;28;19904;-80
2021/06/03 06:11:39;;;;;;;;;;;19.50;98.70;;;;;;5033313;28;19905;-82
2021/06/03 06:14:05;;;;;;;;;;;19.50;98.70;;;;;;5036301;28;19909;-79
2021/06/03 06:16:31;;;;;;;;;;;19.50;98.90;;;;;;5035005;28;20369;-79
2021/06/03 06:18:56;;;;;;;;;;;19.60;98.90;;;;;;5035718;28;19905;-79
2021/06/03 06:21:24;;;;;;;;;;;19.60;98.80;;;;;;5039835;28;19905;-79
2021/06/03 06:23:50;;;;;;;;;;;19.70;98.80;;;;;;5033974;28;20375;-79
2021/06/03 06:26:16;;;;;;;;;;;19.70;98.60;;;;;;5033921;28;19908;-79
2021/06/03 06:28:41;;;;;;;;;;;19.80;98.70;;;;;;5032798;28;20020;-79
2021/06/03 06:31:07;;;;;;;;;;;19.90;98.70;;;;;;5048995;28;19908;-79
2021/06/03 06:33:34;;;;;;;;;;;20.00;98.50;;;;;;5036197;28;20297;-79
2021/06/03 06:36:00;;;;;;;;;;;20.20;98.30;;;;;;5036786;28;19913;-79
2021/06/03 06:38:25;;;;;;;;;;;20.30;97.60;;;;;;5038314;28;20422;-80
2021/06/03 06:40:52;;;;;;;;;;;20.30;97.10;;;;;;5033221;28;20003;-80
2021/06/03 06:43:18;;;;;;;;;;;20.30;97.10;;;;;;5033110;28;19939;-79
2021/06/03 06:45:44;;;;;;;;;;;20.30;97.20;;;;;;5037516;28;19963;-80
2021/06/03 06:48:10;;;;;;;;;;;20.30;97.20;;;;;;5030399;28;19913;-78
2021/06/03 06:50:37;;;;;;;;;;;20.40;97.20;;;;;;5034544;28;19909;-79
2021/06/03 06:53:03;;;;;;;;;;;20.40;97.40;;;;;;5033591;28;19913;-79
2021/06/03 06:55:28;;;;;;;;;;;20.50;97.20;;;;;;5032217;28;19916;-79
2021/06/03 06:57:55;;;;;;;;;;;20.60;97.40;;;;;;5031877;28;19906;-79
2021/06/03 07:00:24;;;;;;;;;;;20.60;97.50;;;;;;5036785;28;19905;-79
2021/06/03 07:02:49;;;;;;;;;;;20.70;97.50;;;;;;5035317;28;19905;-79
2021/06/03 07:05:15;;;;;;;;;;;20.70;97.10;;;;;;5035801;28;19998;-79
2021/06/03 07:07:41;;;;;;;;;;;20.70;97.20;;;;;;5022396;28;19948;-79
2021/06/03 07:10:07;;;;;;;;;;;20.70;97.30;;;;;;5027618;28;19912;-79
2021/06/03 07:12:33;;;;;;;;;;;20.70;97.30;;;;;;5032353;28;20372;-79
2021/06/03 07:15:00;;;;;;;;;;;20.80;97.60;;;;;;5032175;28;19972;-79
2021/06/03 07:17:26;;;;;;;;;;;20.90;97.40;;;;;;5036830;28;20364;-79
2021/06/03 07:19:51;;;;;;;;;;;21.00;97.10;;;;;;5032876;28;19913;-79
2021/06/03 07:22:17;;;;;;;;;;;21.10;97.10;;;;;;5019532;28;19949;-79
2021/06/03 07:24:44;;;;;;;;;;;21.10;96.80;;;;;;5024167;28;19917;-81
2021/06/03 07:27:10;;;;;;;;;;;21.10;96.70;;;;;;5034017;28;19955;-81
2021/06/03 07:29:35;;;;;;;;;;;21.10;96.20;;;;;;5034831;28;20308;-81
2021/06/03 07:32:00;;;;;;;;;;;21.00;96.20;;;;;;5033991;28;20343;-80
2021/06/03 07:34:27;;;;;;;;;;;21.00;96.20;;;;;;5037278;28;20035;-80
2021/06/03 07:36:52;;;;;;;;;;;21.00;96.40;;;;;;5034565;28;19959;-80
2021/06/03 07:39:20;;;;;;;;;;;21.00;96.50;;;;;;5047907;28;19927;-80
2021/06/03 07:41:46;;;;;;;;;;;21.10;96.50;;;;;;5047665;28;19905;-80
2021/06/03 07:44:11;;;;;;;;;;;21.20;96.40;;;;;;5033422;28;19912;-80
2021/06/03 07:46:39;;;;;;;;;;;21.30;96.50;;;;;;5034992;28;19920;-80
2021/06/03 07:49:05;;;;;;;;;;;21.40;96.20;;;;;;5032880;28;19913;-80
2021/06/03 07:51:30;;;;;;;;;;;21.60;95.90;;;;;;5034587;28;19905;-80
2021/06/03 07:53:56;;;;;;;;;;;21.70;95.20;;;;;;5032949;28;19913;-80
2021/06/03 07:56:21;;;;;;;;;;;21.80;95.30;;;;;;5032725;28;20280;-80
2021/06/03 07:58:47;;;;;;;;;;;21.90;95.10;;;;;;5035162;28;20372;-80
2021/06/03 08:01:12;;;;;;;;;;;21.90;95.60;;;;;;5033924;28;19917;-79
2021/06/03 08:03:38;;;;;;;;;;;22.00;95.60;;;;;;5023511;28;19924;-80
2021/06/03 08:06:03;;;;;;;;;;;22.00;95.10;;;;;;5034282;28;19909;-80
2021/06/03 08:08:35;;;;;;;;;;;21.90;95.00;;;;;;5034227;28;19909;-81
2021/06/03 08:11:01;;;;;;;;;;;21.90;94.90;;;;;;5037104;28;20365;-80
2021/06/03 08:13:26;;;;;;;;;;;22.00;95.20;;;;;;5047105;28;19935;-80
2021/06/03 08:15:52;;;;;;;;;;;22.10;95.70;;;;;;5052409;28;19905;-80
2021/06/03 08:18:17;;;;;;;;;;;22.20;95.10;;;;;;5051895;28;20379;-80
2021/06/03 08:20:50;;;;;;;;;;;22.20;95.00;;;;;;5052930;28;20394;-80
2021/06/03 08:23:16;;;;;;;;;;;22.30;94.90;;;;;;5051648;28;19905;-80
2021/06/03 08:25:42;;;;;;;;;;;22.40;94.60;;;;;;5052788;28;19935;-80
2021/06/03 08:28:08;;;;;;;;;;;22.50;94.80;;;;;;5052789;28;20276;-80
2021/06/03 08:30:34;;;;;;;;;;;22.60;94.40;;;;;;5053118;28;19909;-80
2021/06/03 08:33:00;;;;;;;;;;;22.80;93.60;;;;;;5051369;28;19910;-83
2021/06/03 08:35:25;;;;;;;;;;;23.00;92.90;;;;;;5051359;28;19913;-80
2021/06/03 08:37:52;;;;;;;;;;;23.20;92.90;;;;;;5051511;28;19908;-81
2021/06/03 08:40:23;;;;;;;;;;;23.30;91.90;;;;;;5052467;28;20375;-81
2021/06/03 08:42:52;;;;;;;;;;;23.40;91.60;;;;;;5047946;28;20281;-80
2021/06/03 08:45:19;;;;;;;;;;;23.60;91.00;;;;;;5025349;28;20292;-80
2021/06/03 08:47:44;;;;;;;;;;;23.80;90.90;;;;;;5026774;28;20424;-81
2021/06/03 08:50:10;;;;;;;;;;;23.90;90.00;;;;;;5052860;28;20043;-82
2021/06/03 08:52:36;;;;;;;;;;;24.00;89.90;;;;;;5052169;28;19909;-82
2021/06/03 08:55:04;;;;;;;;;;;24.30;90.00;;;;;;5051942;28;19908;-81
2021/06/03 08:57:29;;;;;;;;;;;24.40;90.20;;;;;;5055368;28;19913;-82
2021/06/03 08:59:55;;;;;;;;;;;24.50;89.90;;;;;;5029481;28;19912;-80
2021/06/03 09:02:20;;;;;;;;;;;24.80;89.50;;;;;;5025174;28;20300;-83
2021/06/03 09:04:46;;;;;;;;;;;24.90;89.50;;;;;;5063350;28;19912;-83
2021/06/03 09:07:29;;;;;;;;;;;25.00;89.70;;;;;;5056167;28;19919;-82
2021/06/03 09:09:55;;;;;;;;;;;25.00;88.50;;;;;;5054993;28;20007;-82
2021/06/03 09:12:21;;;;;;;;;;;25.00;88.00;;;;;;5056218;28;20522;-84
2021/06/03 09:14:46;;;;;;;;;;;25.00;86.90;;;;;;5054806;28;20003;-82
2021/06/03 09:17:12;;;;;;;;;;;24.90;87.50;;;;;;5055603;28;20315;-83
2021/06/03 09:19:50;;;;;;;;;;;24.90;87.40;;;;;;5054844;28;20287;-84
2021/06/03 09:22:35;;;;;;;;;;;25.00;86.10;;;;;;5056103;28;19912;-83
2021/06/03 09:25:00;;;;;;;;;;;24.90;86.30;;;;;;5030180;28;20067;-82
2021/06/03 09:27:26;;;;;;;;;;;24.90;87.70;;;;;;5025140;28;19917;-82
2021/06/03 09:29:59;;;;;;;;;;;24.90;86.60;;;;;;5044356;28;20316;-83
2021/06/03 09:32:25;;;;;;;;;;;25.00;85.40;;;;;;5055834;28;19911;-83
2021/06/03 09:34:54;;;;;;;;;;;25.10;86.90;;;;;;5050796;28;19913;-82
2021/06/03 09:37:20;;;;;;;;;;;25.20;86.90;;;;;;5054353;28;20276;-83
2021/06/03 09:39:45;;;;;;;;;;;25.30;86.70;;;;;;5054228;28;19954;-83
2021/06/03 09:42:14;;;;;;;;;;;25.50;87.30;;;;;;5055684;28;19952;-83
2021/06/03 09:44:50;;;;;;;;;;;25.70;87.30;;;;;;5054273;28;19912;-83
2021/06/03 09:47:17;;;;;;;;;;;25.80;86.00;;;;;;5055424;28;19913;-83
2021/06/03 09:49:44;;;;;;;;;;;25.80;85.40;;;;;;5055498;28;19908;-83
2021/06/03 09:52:14;;;;;;;;;;;26.00;87.00;;;;;;5055501;28;19905;-83
2021/06/03 09:54:40;;;;;;;;;;;26.10;85.60;;;;;;5055229;28;19904;-84
2021/06/03 09:57:06;;;;;;;;;;;26.10;83.10;;;;;;5053635;28;20304;-83
2021/06/03 09:59:36;;;;;;;;;;;26.10;84.00;;;;;;5053707;28;20369;-83
2021/06/03 10:02:09;;;;;;;;;;;26.30;84.50;;;;;;5055079;28;19909;-83
2021/06/03 10:04:45;;;;;;;;;;;26.60;82.40;;;;;;5052758;28;20276;-83
2021/06/03 10:07:15;;;;;;;;;;;26.80;82.50;;;;;;5053068;28;19909;-83
2021/06/03 10:09:48;;;;;;;;;;;27.10;79.70;;;;;;5054534;28;19904;-84
2021/06/03 10:12:33;;;;;;;;;;;27.40;78.70;;;;;;5053926;28;19905;-84
2021/06/03 10:15:11;;;;;;;;;;;28.70;77.60;;;;;;5049799;28;20357;-86
2021/06/03 10:17:38;;;;;;;;;;;29.30;72.00;;;;;;5054625;28;19909;-85
2021/06/03 10:20:08;;;;;;;;;;;29.40;69.40;;;;;;5053778;28;19912;-84
2021/06/03 10:22:36;;;;;;;;;;;29.00;71.70;;;;;;5053546;28;19905;-83
2021/06/03 10:25:08;;;;;;;;;;;28.70;72.10;;;;;;5053455;28;20008;-83
2021/06/03 10:27:41;;;;;;;;;;;29.20;71.30;;;;;;5042781;28;20003;-83
2021/06/03 10:30:09;;;;;;;;;;;30.00;68.00;;;;;;5027464;28;19913;-83
2021/06/03 10:32:35;;;;;;;;;;;30.20;66.70;;;;;;5048309;28;19915;-84
2021/06/03 10:35:00;;;;;;;;;;;30.80;69.20;;;;;;5052592;28;20284;-82
2021/06/03 10:37:26;;;;;;;;;;;30.70;65.00;;;;;;5052847;28;19905;-83
2021/06/03 10:39:53;;;;;;;;;;;29.70;65.30;;;;;;5052645;28;19954;-83
2021/06/03 10:42:20;;;;;;;;;;;28.90;68.30;;;;;;5033492;28;19913;-82
2021/06/03 10:44:46;;;;;;;;;;;28.20;70.90;;;;;;5031675;28;19912;-81
2021/06/03 10:47:12;;;;;;;;;;;27.70;72.10;;;;;;5040682;28;19986;-85
2021/06/03 10:49:38;;;;;;;;;;;27.20;73.70;;;;;;5052821;28;19986;-83
2021/06/03 10:52:07;;;;;;;;;;;26.80;75.40;;;;;;5052098;28;19916;-85
2021/06/03 10:54:40;;;;;;;;;;;26.70;76.90;;;;;;5052450;28;19904;-85
2021/06/03 10:57:06;;;;;;;;;;;26.70;78.20;;;;;;5052407;28;19905;-86
2021/06/03 10:59:32;;;;;;;;;;;26.60;77.30;;;;;;5054207;28;19915;-85
2021/06/03 11:01:59;;;;;;;;;;;26.50;76.80;;;;;;5054129;28;19904;-84
2021/06/03 11:04:26;;;;;;;;;;;26.30;78.20;;;;;;5053970;28;20455;-84
2021/06/03 11:06:51;;;;;;;;;;;26.70;80.00;;;;;;5053939;28;20426;-83
2021/06/03 11:09:24;;;;;;;;;;;28.10;77.50;;;;;;5053724;28;19912;-85
2021/06/03 11:12:04;;;;;;;;;;;28.70;72.60;;;;;;5053446;28;19954;-85
2021/06/03 11:14:30;;;;;;;;;;;28.50;72.20;;;;;;5052026;28;20034;-85
2021/06/03 11:16:56;;;;;;;;;;;28.80;72.50;;;;;;5051448;28;20032;-84
2021/06/03 11:19:21;;;;;;;;;;;29.40;71.40;;;;;;5051217;28;19905;-84
2021/06/03 11:21:47;;;;;;;;;;;29.70;69.60;;;;;;5052185;28;19955;-84
2021/06/03 11:24:16;;;;;;;;;;;30.90;68.70;;;;;;5053136;28;19948;-85
2021/06/03 11:26:42;;;;;;;;;;;31.40;65.50;;;;;;5050528;28;20412;-84
2021/06/03 11:29:12;;;;;;;;;;;31.40;65.80;;;;;;5052011;28;19958;-85
2021/06/03 11:31:39;;;;;;;;;;;31.30;61.10;;;;;;5052460;28;19912;-86
2021/06/03 11:34:09;;;;;;;;;;;31.50;62.20;;;;;;5051855;28;19953;-84
2021/06/03 11:36:36;;;;;;;;;;;31.90;59.60;;;;;;5053071;28;20284;-85
2021/06/03 11:39:04;;;;;;;;;;;31.80;59.70;;;;;;5035149;28;19920;-85
2021/06/03 11:41:34;;;;;;;;;;;32.40;59.80;;;;;;5052114;28;19905;-85
2021/06/03 11:44:05;;;;;;;;;;;33.60;58.60;;;;;;5053574;28;19905;-85
2021/06/03 11:46:49;;;;;;;;;;;34.20;55.70;;;;;;5052994;28;19921;-84
2021/06/03 11:49:32;;;;;;;;;;;34.50;54.80;;;;;;5053312;28;19905;-84
2021/06/03 11:52:10;;;;;;;;;;;33.80;52.30;;;;;;5051102;28;20367;-84
2021/06/03 11:54:51;;;;;;;;;;;32.80;54.70;;;;;;5053331;28;19908;-85
2021/06/03 11:57:17;;;;;;;;;;;33.10;55.10;;;;;;5053008;28;19905;-84
2021/06/03 11:59:57;;;;;;;;;;;33.50;54.00;;;;;;5053342;28;19986;-84
2021/06/03 12:02:27;;;;;;;;;;;34.10;53.00;;;;;;5051654;28;20353;-84
2021/06/03 12:07:49;;;;;;;;;;;34.40;52.20;;;;;;5053024;28;20010;-84
2021/06/03 12:10:16;;;;;;;;;;;33.80;52.20;;;;;;5050999;28;20357;-84
2021/06/03 12:12:42;;;;;;;;;;;32.60;53.30;;;;;;5051044;28;19951;-84
2021/06/03 12:15:19;;;;;;;;;;;31.40;56.30;;;;;;5052248;28;19912;-83
2021/06/03 12:17:45;;;;;;;;;;;30.50;58.20;;;;;;5050646;28;19905;-84
2021/06/03 12:20:15;;;;;;;;;;;29.80;60.70;;;;;;5053125;28;19905;-86
2021/06/03 12:22:41;;;;;;;;;;;28.90;70.70;;;;;;5051958;28;19916;-85
2021/06/03 12:25:07;;;;;;;;;;;26.20;87.70;;;;;;5052800;28;19905;-92
2021/06/03 12:27:34;;;;;;;;;;;24.30;96.20;;;;;;5050633;28;19920;-80
2021/06/03 12:30:18;;;;;;;;;;;22.90;99.90;;;;;;5055174;28;19905;-86
2021/06/03 12:33:04;;;;;;;;;;;22.80;99.90;;;;;;5034932;28;20367;-82
2021/06/03 12:35:46;;;;;;;;;;;22.60;99.90;;;;;;5022371;28;19921;-82
2021/06/03 12:38:24;;;;;;;;;;;22.10;99.90;;;;;;5047913;28;19913;-82
2021/06/03 12:40:49;;;;;;;;;;;22.10;99.90;;;;;;5056876;28;19959;-82
2021/06/03 12:43:15;;;;;;;;;;;22.10;99.90;;;;;;5056581;28;19909;-82
2021/06/03 12:45:41;;;;;;;;;;;22.00;99.90;;;;;;5055249;28;19979;-81
2021/06/03 12:48:09;;;;;;;;;;;22.00;99.90;;;;;;5055310;28;19909;-82
2021/06/03 12:50:38;;;;;;;;;;;22.00;99.90;;;;;;5054550;28;20368;-84
2021/06/03 12:53:07;;;;;;;;;;;22.20;99.90;;;;;;5029226;28;20168;-83
2021/06/03 12:55:32;;;;;;;;;;;22.20;99.90;;;;;;5028031;28;19948;-83
2021/06/03 12:58:04;;;;;;;;;;;22.30;99.90;;;;;;5046788;28;19908;-84
2021/06/03 13:00:31;;;;;;;;;;;22.30;99.90;;;;;;5055109;28;20431;-84
2021/06/03 13:03:07;;;;;;;;;;;22.30;99.90;;;;;;5055253;28;19905;-84
2021/06/03 13:05:32;;;;;;;;;;;22.10;99.90;;;;;;5056297;28;19908;-84
2021/06/03 13:07:58;;;;;;;;;;;22.10;99.90;;;;;;5055035;28;20379;-84
2021/06/03 13:10:23;;;;;;;;;;;22.30;99.90;;;;;;5054924;28;20319;-83
2021/06/03 13:12:54;;;;;;;;;;;22.30;99.90;;;;;;5056096;28;20459;-84
2021/06/03 13:15:19;;;;;;;;;;;22.50;99.90;;;;;;5056223;28;19943;-84
2021/06/03 13:17:53;;;;;;;;;;;22.50;99.90;;;;;;5054811;28;19952;-84
2021/06/03 13:20:21;;;;;;;;;;;22.40;99.90;;;;;;5056047;28;19905;-84
2021/06/03 13:22:48;;;;;;;;;;;22.20;99.90;;;;;;5054857;28;19905;-85
2021/06/03 13:25:14;;;;;;;;;;;21.90;99.90;;;;;;5055989;28;19905;-85
2021/06/03 13:27:40;;;;;;;;;;;21.60;99.90;;;;;;5054012;28;19909;-87
2021/06/03 13:30:14;;;;;;;;;;;21.50;99.90;;;;;;5054300;28;19909;-87
2021/06/03 13:32:40;;;;;;;;;;;21.40;99.90;;;;;;5054313;28;20361;-87
2021/06/03 13:35:07;;;;;;;;;;;21.20;99.90;;;;;;5055406;28;19913;-87
2021/06/03 13:37:34;;;;;;;;;;;21.00;99.90;;;;;;5054258;28;19919;-87
2021/06/03 13:40:01;;;;;;;;;;;20.90;99.90;;;;;;5054172;28;20345;-86
2021/06/03 13:42:28;;;;;;;;;;;20.80;99.90;;;;;;5054150;28;19993;-85
2021/06/03 13:45:08;;;;;;;;;;;20.80;99.90;;;;;;5055296;28;20348;-86
2021/06/03 13:47:41;;;;;;;;;;;20.80;99.90;;;;;;5055326;28;20019;-87
2021/06/03 13:50:26;;;;;;;;;;;21.00;99.90;;;;;;5051673;28;19909;-87
2021/06/03 13:52:56;;;;;;;;;;;21.40;99.90;;;;;;5049834;28;19904;-85
2021/06/03 13:55:23;;;;;;;;;;;22.00;99.90;;;;;;5036662;28;19905;-85
2021/06/03 13:57:49;;;;;;;;;;;22.40;99.90;;;;;;5042308;28;20345;-87
2021/06/03 14:00:25;;;;;;;;;;;22.70;99.90;;;;;;5045649;28;19920;-86
2021/06/03 14:02:58;;;;;;;;;;;23.00;99.90;;;;;;5038902;28;19912;-85
2021/06/03 14:05:24;;;;;;;;;;;23.00;99.90;;;;;;5047811;28;19908;-86
2021/06/03 14:08:09;;;;;;;;;;;23.10;99.90;;;;;;5054026;28;19912;-87
2021/06/03 14:10:55;;;;;;;;;;;23.10;99.90;;;;;;5053930;28;19905;-85
2021/06/03 14:13:20;;;;;;;;;;;23.30;99.90;;;;;;5053682;28;19905;-85
2021/06/03 14:15:46;;;;;;;;;;;23.40;99.90;;;;;;5045566;28;19932;-86
2021/06/03 14:18:11;;;;;;;;;;;23.60;99.90;;;;;;5046289;28;19913;-86
2021/06/03 14:20:37;;;;;;;;;;;23.70;99.90;;;;;;5038854;28;19905;-86